Time;durP1;ratioP1;P1;durP2;ratioP2;P2;SDS_P1;SDS_P2;PMS_P1;PMS_P2;Temp;Humidity;BMP_temperature;BMP_pressure;BME280_temperature;BME280_humidity;BME280_pressure;Samples;Min_cycle;Max_cycle;Signal;HPM_P1;HPM_P2
2023/04/06 00:01:25;;;;;;;7.07;4.50;;;1.40;99.90;;;;;;5055342;28;20627;-78
2023/04/06 00:03:50;;;;;;;6.90;5.13;;;1.40;99.90;;;;;;5055665;28;20322;-78
2023/04/06 00:06:16;;;;;;;8.37;5.10;;;1.40;99.90;;;;;;5053748;28;20171;-79
2023/04/06 00:08:42;;;;;;;7.50;5.00;;;1.30;99.90;;;;;;5051160;28;20199;-78
2023/04/06 00:11:07;;;;;;;7.43;5.30;;;1.30;99.90;;;;;;5052508;28;20187;-77
2023/04/06 00:13:33;;;;;;;8.00;4.67;;;1.20;99.90;;;;;;5052419;28;20213;-77
2023/04/06 00:15:58;;;;;;;6.20;4.53;;;1.20;99.90;;;;;;5052364;28;20226;-77
2023/04/06 00:18:24;;;;;;;9.10;5.40;;;1.20;99.90;;;;;;5050785;28;20610;-77
2023/04/06 00:20:50;;;;;;;7.03;4.93;;;1.20;99.90;;;;;;5050769;28;20179;-76
2023/04/06 00:23:16;;;;;;;7.03;4.50;;;1.20;99.90;;;;;;5050699;28;20211;-76
2023/04/06 00:25:42;;;;;;;6.27;4.17;;;1.20;99.90;;;;;;5052263;28;20168;-77
2023/04/06 00:28:07;;;;;;;8.33;4.97;;;1.10;99.90;;;;;;5052280;28;20278;-76
2023/04/06 00:30:33;;;;;;;8.03;5.30;;;1.10;99.90;;;;;;5050763;28;20172;-77
2023/04/06 00:32:58;;;;;;;7.23;4.80;;;1.10;99.90;;;;;;5052115;28;20244;-77
2023/04/06 00:35:24;;;;;;;7.97;4.67;;;1.10;99.90;;;;;;5050913;28;20306;-77
2023/04/06 00:37:49;;;;;;;7.60;5.00;;;1.10;99.90;;;;;;5052155;28;20641;-77
2023/04/06 00:40:15;;;;;;;6.60;4.30;;;1.00;99.90;;;;;;5050605;28;20581;-77
2023/04/06 00:42:41;;;;;;;7.53;4.30;;;1.10;99.90;;;;;;5052058;28;20706;-77
2023/04/06 00:45:07;;;;;;;8.27;5.03;;;1.00;99.90;;;;;;5052053;28;20274;-76
2023/04/06 00:47:33;;;;;;;12.00;4.83;;;1.00;99.90;;;;;;5051896;28;20673;-76
2023/04/06 00:49:59;;;;;;;9.23;4.50;;;1.00;99.90;;;;;;5052266;28;20246;-77
2023/04/06 00:52:25;;;;;;;6.13;4.07;;;1.00;99.90;;;;;;5052827;28;20286;-77
2023/04/06 00:54:50;;;;;;;8.03;5.07;;;1.00;99.90;;;;;;5054439;28;20534;-77
2023/04/06 00:57:16;;;;;;;5.57;4.30;;;0.90;99.90;;;;;;5054564;28;20290;-76
2023/04/06 00:59:42;;;;;;;7.03;4.47;;;0.90;99.90;;;;;;5055698;28;20176;-77
2023/04/06 01:02:08;;;;;;;5.93;4.47;;;0.90;99.90;;;;;;5055688;28;20218;-77
2023/04/06 01:04:34;;;;;;;8.33;4.73;;;0.90;99.90;;;;;;5055675;28;20171;-76
2023/04/06 01:07:00;;;;;;;7.57;4.07;;;0.90;99.90;;;;;;5055698;28;20646;-77
2023/04/06 01:09:29;;;;;;;5.20;4.20;;;0.90;99.90;;;;;;5054266;28;20171;-76
2023/04/06 01:11:55;;;;;;;6.70;4.13;;;0.90;99.90;;;;;;5054056;28;20585;-76
2023/04/06 01:14:21;;;;;;;9.27;4.33;;;0.90;99.90;;;;;;5055693;28;20266;-77
2023/04/06 01:16:47;;;;;;;7.27;4.50;;;0.90;99.90;;;;;;5055409;28;20223;-76
2023/04/06 01:19:13;;;;;;;7.20;4.90;;;0.80;99.90;;;;;;5055444;28;20635;-76
2023/04/06 01:21:40;;;;;;;10.40;5.53;;;0.80;99.90;;;;;;5055242;28;20249;-77
2023/04/06 01:24:06;;;;;;;6.13;4.37;;;0.80;99.90;;;;;;5055411;28;20175;-76
2023/04/06 01:26:33;;;;;;;9.87;5.30;;;0.80;99.90;;;;;;5055320;28;20229;-76
2023/04/06 01:28:59;;;;;;;6.67;4.37;;;0.70;99.90;;;;;;5055444;28;20210;-76
2023/04/06 01:31:24;;;;;;;5.83;4.30;;;0.70;99.90;;;;;;5055210;28;20250;-76
2023/04/06 01:33:50;;;;;;;7.00;4.63;;;0.70;99.90;;;;;;5055127;28;20199;-76
2023/04/06 01:36:16;;;;;;;7.20;4.93;;;0.70;99.90;;;;;;5055135;28;20178;-76
2023/04/06 01:38:41;;;;;;;5.57;4.57;;;0.70;99.90;;;;;;5055291;28;20168;-76
2023/04/06 01:41:08;;;;;;;8.10;4.33;;;0.70;99.90;;;;;;5053612;28;20180;-77
2023/04/06 01:43:33;;;;;;;10.80;5.27;;;0.70;99.90;;;;;;5054876;28;20187;-77
2023/04/06 01:45:59;;;;;;;6.63;4.37;;;0.60;99.90;;;;;;5053491;28;20182;-77
2023/04/06 01:48:26;;;;;;;7.93;5.33;;;0.60;99.90;;;;;;5055286;28;20164;-77
2023/04/06 01:50:52;;;;;;;10.17;4.73;;;0.60;99.90;;;;;;5055031;28;20164;-76
2023/04/06 01:53:17;;;;;;;7.10;4.37;;;0.60;99.90;;;;;;5054937;28;20197;-77
2023/04/06 01:55:43;;;;;;;9.70;5.67;;;0.60;99.90;;;;;;5054970;28;20639;-77
2023/04/06 01:58:08;;;;;;;8.47;5.20;;;0.60;99.90;;;;;;5053644;28;20183;-76
2023/04/06 02:00:34;;;;;;;8.87;5.00;;;0.60;99.90;;;;;;5054839;28;20176;-77
2023/04/06 02:03:00;;;;;;;7.20;5.30;;;0.60;99.90;;;;;;5052925;28;20211;-77
2023/04/06 02:05:26;;;;;;;7.67;5.20;;;0.60;99.90;;;;;;5054774;28;20187;-77
2023/04/06 02:07:51;;;;;;;8.53;5.60;;;0.60;99.90;;;;;;5054713;28;20168;-77
2023/04/06 02:10:17;;;;;;;9.73;4.87;;;0.60;99.90;;;;;;5053655;28;20171;-77
2023/04/06 02:12:43;;;;;;;8.70;5.60;;;0.50;99.90;;;;;;5053753;28;20199;-77
2023/04/06 02:15:09;;;;;;;6.80;4.87;;;0.50;99.90;;;;;;5053218;28;20267;-77
2023/04/06 02:17:35;;;;;;;7.23;5.13;;;0.50;99.90;;;;;;5054589;28;20167;-77
2023/04/06 02:20:00;;;;;;;6.60;5.03;;;0.50;99.90;;;;;;5054448;28;20258;-77
2023/04/06 02:22:26;;;;;;;6.67;4.87;;;0.50;99.90;;;;;;5054266;28;20203;-77
2023/04/06 02:24:51;;;;;;;11.10;5.47;;;0.40;99.90;;;;;;5052960;28;20176;-77
2023/04/06 02:27:17;;;;;;;8.27;4.53;;;0.50;99.90;;;;;;5053022;28;20176;-77
2023/04/06 02:29:42;;;;;;;7.60;4.93;;;0.50;99.90;;;;;;5054277;28;20175;-77
2023/04/06 02:32:08;;;;;;;9.00;5.17;;;0.50;99.90;;;;;;5054420;28;20618;-77
2023/04/06 02:34:33;;;;;;;6.53;4.20;;;0.50;99.90;;;;;;5054245;28;20194;-77
2023/04/06 02:36:59;;;;;;;11.17;5.20;;;0.50;99.90;;;;;;5054734;28;20168;-77
2023/04/06 02:39:24;;;;;;;10.80;6.00;;;0.50;99.90;;;;;;5052773;28;20171;-77
2023/04/06 02:41:50;;;;;;;8.43;5.23;;;0.40;99.90;;;;;;5054095;28;20230;-77
2023/04/06 02:44:15;;;;;;;10.27;5.63;;;0.50;99.90;;;;;;5054077;28;20178;-77
2023/04/06 02:46:41;;;;;;;8.03;5.43;;;0.50;99.90;;;;;;5054086;28;20168;-77
2023/04/06 02:49:07;;;;;;;8.90;5.40;;;0.40;99.90;;;;;;5054270;28;20171;-77
2023/04/06 02:51:33;;;;;;;7.77;4.40;;;0.40;99.90;;;;;;5057217;28;20175;-79
2023/04/06 02:53:58;;;;;;;6.00;4.90;;;0.50;99.90;;;;;;5056344;28;20217;-77
2023/04/06 02:56:24;;;;;;;8.70;5.17;;;0.40;99.90;;;;;;5052678;28;20179;-77
2023/04/06 02:58:50;;;;;;;7.57;5.00;;;0.50;99.90;;;;;;5054767;28;20176;-78
2023/04/06 03:01:15;;;;;;;7.57;4.70;;;0.50;99.90;;;;;;5052577;28;20202;-76
2023/04/06 03:03:41;;;;;;;7.13;4.87;;;0.40;99.90;;;;;;5054610;28;20263;-78
2023/04/06 03:06:06;;;;;;;7.00;4.97;;;0.40;99.90;;;;;;5055587;28;20705;-78
2023/04/06 03:08:32;;;;;;;7.33;4.63;;;0.40;99.90;;;;;;5056850;28;20184;-78
2023/04/06 03:10:58;;;;;;;7.10;4.83;;;0.40;99.90;;;;;;5056663;28;20707;-78
2023/04/06 03:13:23;;;;;;;7.97;4.83;;;0.40;99.90;;;;;;5055596;28;20242;-78
2023/04/06 03:15:49;;;;;;;8.33;4.63;;;0.40;99.90;;;;;;5054243;28;20203;-77
2023/04/06 03:18:14;;;;;;;10.97;5.07;;;0.40;99.90;;;;;;5057471;28;20667;-78
2023/04/06 03:20:40;;;;;;;11.30;4.97;;;0.40;99.90;;;;;;5056608;28;20179;-78
2023/04/06 03:23:06;;;;;;;8.83;5.03;;;0.40;99.90;;;;;;5055046;28;20277;-79
2023/04/06 03:25:31;;;;;;;7.30;4.97;;;0.30;99.90;;;;;;5054054;28;20178;-77
2023/04/06 03:27:57;;;;;;;7.57;5.27;;;0.30;99.90;;;;;;5051861;28;20188;-77
2023/04/06 03:30:22;;;;;;;8.87;5.30;;;0.30;99.90;;;;;;5053139;28;20589;-79
2023/04/06 03:32:48;;;;;;;7.47;5.23;;;0.30;99.90;;;;;;5051583;28;20195;-77
2023/04/06 03:35:13;;;;;;;9.60;5.60;;;0.30;99.90;;;;;;5053113;28;20172;-78
2023/04/06 03:37:39;;;;;;;7.33;5.63;;;0.30;99.90;;;;;;5053090;28;20316;-78
2023/04/06 03:40:05;;;;;;;8.33;4.90;;;0.30;99.90;;;;;;5053264;28;20186;-77
2023/04/06 03:42:32;;;;;;;7.17;4.93;;;0.20;99.90;;;;;;5051264;28;20210;-77
2023/04/06 03:44:58;;;;;;;8.27;5.60;;;0.20;99.90;;;;;;5053005;28;20195;-77
2023/04/06 03:47:23;;;;;;;8.70;5.00;;;0.20;99.90;;;;;;5051606;28;20256;-77
2023/04/06 03:49:49;;;;;;;9.30;5.87;;;0.20;99.90;;;;;;5053016;28;20175;-77
2023/04/06 03:52:14;;;;;;;9.93;5.00;;;0.20;99.90;;;;;;5052512;28;20192;-77
2023/04/06 03:54:40;;;;;;;8.90;5.30;;;0.20;99.90;;;;;;5051105;28;20175;-77
2023/04/06 03:57:05;;;;;;;8.67;5.60;;;0.20;99.90;;;;;;5052778;28;20635;-77
2023/04/06 03:59:31;;;;;;;12.23;5.67;;;0.10;99.90;;;;;;5051314;28;20175;-77
2023/04/06 04:01:56;;;;;;;8.83;5.63;;;0.10;99.90;;;;;;5052893;28;20547;-77
2023/04/06 04:04:22;;;;;;;8.60;5.80;;;0.20;99.90;;;;;;5052688;28;20168;-78
2023/04/06 04:06:47;;;;;;;9.50;5.50;;;0.10;99.90;;;;;;5051441;28;20546;-77
2023/04/06 04:09:13;;;;;;;8.40;5.47;;;0.10;99.90;;;;;;5052543;28;20198;-77
2023/04/06 04:11:38;;;;;;;9.27;5.00;;;0.10;99.90;;;;;;5051008;28;20194;-78
2023/04/06 04:14:04;;;;;;;7.87;4.97;;;0.10;99.90;;;;;;5052399;28;20225;-78
2023/04/06 04:16:30;;;;;;;10.73;5.50;;;0.10;99.90;;;;;;5052612;28;20183;-77
2023/04/06 04:18:55;;;;;;;9.37;5.83;;;0.10;99.90;;;;;;5051178;28;20194;-78
2023/04/06 04:21:21;;;;;;;9.57;5.70;;;0.10;99.90;;;;;;5052862;28;20237;-77
2023/04/06 04:23:46;;;;;;;10.73;5.43;;;0.00;99.90;;;;;;5052513;28;20194;-77
2023/04/06 04:26:12;;;;;;;8.83;5.90;;;0.00;99.90;;;;;;5053384;28;20174;-77
2023/04/06 04:28:38;;;;;;;8.63;5.70;;;0.00;99.90;;;;;;5058906;28;20599;-77
2023/04/06 04:31:03;;;;;;;7.20;5.10;;;0.00;99.90;;;;;;5059232;28;20256;-77
2023/04/06 04:33:29;;;;;;;8.37;5.77;;;0.00;99.90;;;;;;5059074;28;20221;-78
2023/04/06 04:35:54;;;;;;;7.40;5.33;;;-0.10;99.90;;;;;;5057467;28;20179;-78
2023/04/06 04:38:20;;;;;;;8.23;5.93;;;-0.10;99.90;;;;;;5059041;28;20177;-76
2023/04/06 04:40:45;;;;;;;9.90;5.93;;;-0.10;99.90;;;;;;5059049;28;20669;-78
2023/04/06 04:43:11;;;;;;;9.23;5.73;;;-0.10;99.90;;;;;;5058670;28;20210;-77
2023/04/06 04:45:37;;;;;;;8.07;5.00;;;-0.10;99.90;;;;;;5059068;28;20206;-77
2023/04/06 04:48:04;;;;;;;11.67;6.00;;;-0.10;99.90;;;;;;5058968;28;20591;-76
2023/04/06 04:50:30;;;;;;;10.87;5.80;;;-0.10;99.90;;;;;;5057477;28;20652;-77
2023/04/06 04:52:55;;;;;;;9.57;6.03;;;-0.10;99.90;;;;;;5058729;28;20237;-77
2023/04/06 04:55:21;;;;;;;8.37;5.97;;;0.00;99.90;;;;;;5058720;28;20172;-76
2023/04/06 04:57:46;;;;;;;10.33;5.70;;;-0.10;99.90;;;;;;5058569;28;20545;-77
2023/04/06 05:00:12;;;;;;;7.47;5.73;;;-0.10;99.90;;;;;;5058794;28;20179;-77
2023/04/06 05:02:39;;;;;;;8.40;5.43;;;-0.10;99.90;;;;;;5058794;28;20676;-78
2023/04/06 05:05:05;;;;;;;8.73;6.20;;;0.00;99.90;;;;;;5058620;28;20222;-78
2023/04/06 05:07:30;;;;;;;10.43;6.30;;;0.00;99.90;;;;;;5059070;28;20174;-77
2023/04/06 05:09:56;;;;;;;9.93;6.57;;;0.00;99.90;;;;;;5057462;28;20179;-77
2023/04/06 05:12:21;;;;;;;13.37;6.60;;;0.00;99.90;;;;;;5057823;28;20221;-77
2023/04/06 05:14:47;;;;;;;10.50;6.67;;;0.00;99.90;;;;;;5057557;28;20185;-77
2023/04/06 05:17:13;;;;;;;9.27;6.10;;;0.10;99.90;;;;;;5057313;28;20206;-77
2023/04/06 05:19:39;;;;;;;10.77;6.87;;;0.10;99.90;;;;;;5058767;28;20175;-77
2023/04/06 05:22:04;;;;;;;10.43;6.93;;;0.10;99.90;;;;;;5058520;28;20226;-77
2023/04/06 05:24:30;;;;;;;10.20;7.00;;;0.20;99.90;;;;;;5058642;28;20285;-77
2023/04/06 05:26:55;;;;;;;11.10;7.03;;;0.10;99.90;;;;;;5058706;28;20518;-77
2023/04/06 05:29:21;;;;;;;8.57;6.60;;;0.20;99.90;;;;;;5058560;28;20635;-77
2023/04/06 05:31:46;;;;;;;11.80;6.67;;;0.20;99.90;;;;;;5057264;28;20210;-78
2023/04/06 05:34:12;;;;;;;12.10;7.10;;;0.30;99.90;;;;;;5058890;28;20176;-78
2023/04/06 05:36:40;;;;;;;9.40;6.93;;;0.30;99.90;;;;;;5058704;28;20178;-78
2023/04/06 05:39:05;;;;;;;9.83;6.90;;;0.30;99.90;;;;;;5054241;28;20545;-77
2023/04/06 05:41:31;;;;;;;11.37;6.13;;;0.30;99.90;;;;;;5054338;28;20207;-78
2023/04/06 05:43:56;;;;;;;12.00;6.70;;;0.40;99.90;;;;;;5056373;28;20584;-78
2023/04/06 05:46:22;;;;;;;8.67;5.77;;;0.40;99.90;;;;;;5054210;28;20202;-77
2023/04/06 05:48:48;;;;;;;8.30;5.73;;;0.40;99.90;;;;;;5053632;28;20168;-77
2023/04/06 05:51:13;;;;;;;8.77;6.13;;;0.50;99.90;;;;;;5053607;28;20722;-77
2023/04/06 05:53:39;;;;;;;8.10;6.40;;;0.50;99.90;;;;;;5055032;28;20237;-78
2023/04/06 05:56:05;;;;;;;11.27;7.20;;;0.60;99.90;;;;;;5053323;28;20241;-77
2023/04/06 05:58:30;;;;;;;9.33;6.70;;;0.60;99.90;;;;;;5055000;28;20254;-77
2023/04/06 06:01:00;;;;;;;15.73;8.00;;;0.70;99.90;;;;;;5054960;28;20199;-77
2023/04/06 06:03:26;;;;;;;12.73;7.63;;;0.80;99.90;;;;;;5054435;28;20347;-76
2023/04/06 06:05:51;;;;;;;10.07;7.47;;;0.80;99.90;;;;;;5054764;28;20171;-77
2023/04/06 06:08:17;;;;;;;9.23;6.80;;;0.80;99.90;;;;;;5054738;28;20566;-78
2023/04/06 06:10:42;;;;;;;10.67;6.67;;;0.90;99.90;;;;;;5052953;28;20591;-78
2023/04/06 06:13:08;;;;;;;11.40;6.60;;;1.00;99.90;;;;;;5054347;28;20286;-77
2023/04/06 06:15:34;;;;;;;11.13;7.20;;;1.00;99.90;;;;;;5054365;28;20283;-77
2023/04/06 06:18:00;;;;;;;13.23;7.37;;;1.10;99.90;;;;;;5053193;28;20201;-77
2023/04/06 06:20:26;;;;;;;10.40;7.57;;;1.20;99.90;;;;;;5054708;28;20535;-78
2023/04/06 06:22:52;;;;;;;8.97;6.90;;;1.20;99.90;;;;;;5054133;28;20200;-77
2023/04/06 06:25:17;;;;;;;12.30;7.17;;;1.30;99.90;;;;;;5054256;28;20167;-77
2023/04/06 06:27:43;;;;;;;9.57;6.67;;;1.40;99.90;;;;;;5054203;28;20655;-77
2023/04/06 06:30:09;;;;;;;10.30;6.90;;;1.50;99.90;;;;;;5054068;28;20179;-77
2023/04/06 06:32:34;;;;;;;12.43;7.10;;;1.60;99.90;;;;;;5054371;28;20191;-77
2023/04/06 06:35:00;;;;;;;9.60;7.37;;;1.70;99.90;;;;;;5054410;28;20254;-78
2023/04/06 06:37:26;;;;;;;10.40;7.00;;;1.80;99.90;;;;;;5053212;28;20733;-78
2023/04/06 06:39:51;;;;;;;11.07;6.73;;;1.90;99.90;;;;;;5055097;28;20249;-78
2023/04/06 06:42:17;;;;;;;11.80;6.73;;;2.10;99.90;;;;;;5054997;28;20338;-78
2023/04/06 06:44:42;;;;;;;8.73;5.97;;;2.20;99.90;;;;;;5055178;28;20194;-78
2023/04/06 06:47:08;;;;;;;12.23;5.83;;;2.30;99.90;;;;;;5054050;28;20172;-76
2023/04/06 06:49:33;;;;;;;8.43;5.60;;;2.50;99.90;;;;;;5053480;28;20167;-76
2023/04/06 06:51:59;;;;;;;10.13;6.73;;;2.60;99.90;;;;;;5053544;28;20191;-77
2023/04/06 06:54:24;;;;;;;8.47;5.93;;;2.70;99.90;;;;;;5053511;28;20254;-75
2023/04/06 06:56:50;;;;;;;14.93;5.97;;;2.80;99.90;;;;;;5052180;28;20529;-76
2023/04/06 06:59:16;;;;;;;9.10;5.40;;;3.00;99.90;;;;;;5053661;28;20190;-76
2023/04/06 07:01:41;;;;;;;11.57;6.37;;;3.10;99.90;;;;;;5052003;28;20199;-77
2023/04/06 07:04:08;;;;;;;7.53;5.40;;;3.30;99.90;;;;;;5052129;28;20175;-76
2023/04/06 07:06:35;;;;;;;7.73;5.13;;;3.30;99.90;;;;;;5053384;28;20325;-76
2023/04/06 07:09:02;;;;;;;11.23;5.57;;;3.40;99.90;;;;;;5053414;28;20175;-76
2023/04/06 07:11:28;;;;;;;7.23;5.17;;;3.60;99.90;;;;;;5053108;28;20179;-77
2023/04/06 07:13:54;;;;;;;5.97;4.67;;;3.70;99.90;;;;;;5051889;28;20218;-76
2023/04/06 07:16:19;;;;;;;8.07;5.50;;;3.90;99.90;;;;;;5053264;28;20217;-77
2023/04/06 07:18:45;;;;;;;10.50;5.33;;;4.00;99.90;;;;;;5051875;28;20171;-76
2023/04/06 07:21:11;;;;;;;6.43;5.03;;;4.10;99.90;;;;;;5051724;28;20195;-76
2023/04/06 07:23:37;;;;;;;7.30;5.03;;;4.20;99.90;;;;;;5053014;28;20191;-76
2023/04/06 07:26:02;;;;;;;12.27;5.93;;;4.30;99.90;;;;;;5053272;28;20539;-77
2023/04/06 07:28:28;;;;;;;8.70;5.80;;;4.40;99.90;;;;;;5051714;28;20711;-76
2023/04/06 07:30:54;;;;;;;8.63;5.80;;;4.60;99.90;;;;;;5052929;28;20175;-77
2023/04/06 07:33:20;;;;;;;9.33;5.90;;;4.70;99.90;;;;;;5051520;28;20231;-77
2023/04/06 07:35:45;;;;;;;7.70;5.37;;;4.80;99.90;;;;;;5051553;28;20206;-77
2023/04/06 07:38:11;;;;;;;8.67;5.43;;;5.00;99.90;;;;;;5051486;28;20732;-77
2023/04/06 07:40:37;;;;;;;10.00;4.90;;;5.10;99.90;;;;;;5051507;28;20713;-77
2023/04/06 07:43:02;;;;;;;8.77;5.53;;;5.20;99.90;;;;;;5052586;28;20204;-76
2023/04/06 07:45:28;;;;;;;9.20;5.60;;;5.30;99.90;;;;;;5051308;28;20175;-77
2023/04/06 07:47:54;;;;;;;8.87;5.37;;;5.40;99.90;;;;;;5051281;28;20183;-77
2023/04/06 07:50:20;;;;;;;8.60;5.50;;;5.50;99.90;;;;;;5043873;28;20180;-78
2023/04/06 07:52:46;;;;;;;8.37;5.30;;;5.60;99.90;;;;;;5030590;28;20683;-78
2023/04/06 07:55:11;;;;;;;8.73;4.83;;;5.70;99.90;;;;;;5030503;28;20180;-78
2023/04/06 07:57:37;;;;;;;11.57;6.10;;;5.90;99.90;;;;;;5031102;28;20329;-77
2023/04/06 08:00:04;;;;;;;8.93;5.27;;;6.00;99.90;;;;;;5029245;28;20263;-78
2023/04/06 08:02:31;;;;;;;9.93;5.83;;;6.10;99.90;;;;;;5029896;28;20650;-76
2023/04/06 08:04:56;;;;;;;11.07;5.33;;;6.20;99.90;;;;;;5029077;28;20655;-77
2023/04/06 08:07:22;;;;;;;7.63;5.33;;;6.30;99.90;;;;;;5032258;28;20176;-77
2023/04/06 08:09:47;;;;;;;8.50;6.00;;;6.50;99.90;;;;;;5031050;28;20497;-77
2023/04/06 08:12:14;;;;;;;7.37;4.97;;;6.60;99.90;;;;;;5031274;28;20219;-77
2023/04/06 08:14:39;;;;;;;7.77;5.33;;;6.70;99.90;;;;;;5030962;28;20598;-77
2023/04/06 08:17:05;;;;;;;7.83;5.77;;;6.90;99.90;;;;;;5032340;28;20225;-77
2023/04/06 08:19:31;;;;;;;9.10;5.57;;;7.00;99.90;;;;;;5032292;28;20183;-77
2023/04/06 08:21:56;;;;;;;8.43;5.37;;;7.00;99.90;;;;;;5032083;28;20691;-77
2023/04/06 08:24:22;;;;;;;10.03;5.23;;;7.10;99.90;;;;;;5030961;28;20168;-77
2023/04/06 08:26:47;;;;;;;9.13;6.03;;;7.30;99.90;;;;;;5032569;28;20245;-77
2023/04/06 08:29:13;;;;;;;8.13;5.80;;;7.40;99.90;;;;;;5032290;28;20180;-77
2023/04/06 08:31:38;;;;;;;11.57;5.60;;;7.50;99.90;;;;;;5032049;28;20183;-77
2023/04/06 08:34:05;;;;;;;10.77;5.67;;;7.60;99.90;;;;;;5032184;28;20210;-77
2023/04/06 08:36:31;;;;;;;7.67;5.77;;;7.70;99.90;;;;;;5031712;28;20524;-77
2023/04/06 08:38:57;;;;;;;8.83;6.10;;;7.80;99.90;;;;;;5030774;28;20237;-77
2023/04/06 08:41:22;;;;;;;8.73;5.63;;;7.80;99.90;;;;;;5030634;28;20271;-77
2023/04/06 08:43:57;;;;;;;8.87;5.93;;;7.90;99.90;;;;;;5031941;28;20202;-77
2023/04/06 08:46:29;;;;;;;7.50;5.50;;;7.90;99.90;;;;;;5032582;28;20484;-77
2023/04/06 08:48:56;;;;;;;9.70;5.67;;;8.00;99.90;;;;;;5030779;28;20192;-77
2023/04/06 08:51:23;;;;;;;12.43;5.60;;;8.10;99.90;;;;;;5030701;28;20321;-77
2023/04/06 08:53:49;;;;;;;12.57;6.47;;;8.20;99.90;;;;;;5030662;28;20202;-77
2023/04/06 08:56:15;;;;;;;11.60;5.80;;;8.30;99.90;;;;;;5032346;28;20172;-77
2023/04/06 08:58:41;;;;;;;8.07;5.80;;;8.30;99.90;;;;;;5031944;28;20525;-77
2023/04/06 09:01:11;;;;;;;14.43;6.27;;;8.40;99.90;;;;;;5031981;28;20177;-77
2023/04/06 09:03:40;;;;;;;10.47;6.73;;;8.50;99.90;;;;;;5031797;28;20561;-77
2023/04/06 09:06:07;;;;;;;9.43;6.47;;;8.60;99.90;;;;;;5031043;28;20551;-77
2023/04/06 09:08:40;;;;;;;9.70;6.60;;;8.70;99.90;;;;;;5030541;28;20181;-77
2023/04/06 09:11:06;;;;;;;10.23;6.17;;;8.90;99.90;;;;;;5031780;28;20561;-77
2023/04/06 09:13:43;;;;;;;11.30;6.53;;;9.00;99.90;;;;;;5032860;28;20245;-77
2023/04/06 09:16:09;;;;;;;14.97;6.73;;;9.10;99.90;;;;;;5034780;28;20217;-77
2023/04/06 09:18:35;;;;;;;14.93;6.60;;;9.20;99.90;;;;;;5035836;28;20591;-77
2023/04/06 09:21:02;;;;;;;10.57;6.33;;;9.30;99.90;;;;;;5035919;28;20262;-76
2023/04/06 09:23:28;;;;;;;9.50;6.43;;;9.50;99.90;;;;;;5034156;28;20717;-77
2023/04/06 09:26:06;;;;;;;13.43;7.27;;;9.60;99.90;;;;;;5035567;28;20177;-76
2023/04/06 09:28:55;;;;;;;14.23;6.80;;;9.70;99.90;;;;;;5036170;28;20167;-76
2023/04/06 09:31:28;;;;;;;11.97;7.23;;;9.90;99.90;;;;;;5035618;28;20215;-76
2023/04/06 09:33:54;;;;;;;9.13;6.10;;;9.90;99.90;;;;;;5034164;28;20203;-76
2023/04/06 09:36:32;;;;;;;11.13;7.37;;;10.00;99.90;;;;;;5035399;28;20640;-77
2023/04/06 09:39:00;;;;;;;12.47;7.07;;;10.10;99.90;;;;;;5035389;28;20172;-76
2023/04/06 09:41:28;;;;;;;17.40;7.57;;;10.20;99.90;;;;;;5038682;28;20226;-79
2023/04/06 09:44:06;;;;;;;12.53;6.93;;;10.20;99.90;;;;;;5036167;28;20222;-77
2023/04/06 09:46:53;;;;;;;16.13;8.27;;;10.30;99.90;;;;;;5034960;28;20171;-78
2023/04/06 09:49:19;;;;;;;14.20;8.57;;;10.40;99.90;;;;;;5034623;28;20175;-78
2023/04/06 09:51:54;;;;;;;12.50;8.47;;;10.50;99.90;;;;;;5036282;28;20226;-78
2023/04/06 09:54:22;;;;;;;11.57;7.63;;;10.50;99.90;;;;;;5035921;28;20164;-78
2023/04/06 09:56:59;;;;;;;15.03;8.63;;;10.60;99.90;;;;;;5035697;28;20187;-78
2023/04/06 09:59:39;;;;;;;14.43;7.90;;;10.70;99.90;;;;;;5036109;28;20274;-78
2023/04/06 10:02:05;;;;;;;14.57;8.53;;;10.80;99.90;;;;;;5034321;28;20634;-77
2023/04/06 10:04:42;;;;;;;14.30;8.03;;;10.80;99.90;;;;;;5035877;28;20231;-78
2023/04/06 10:07:10;;;;;;;14.07;8.43;;;10.90;99.90;;;;;;5035579;28;20223;-78
2023/04/06 10:09:37;;;;;;;12.70;7.73;;;11.00;99.90;;;;;;5035231;28;20172;-78
2023/04/06 10:12:06;;;;;;;16.00;8.87;;;11.10;99.90;;;;;;5035214;28;20203;-78
2023/04/06 10:14:36;;;;;;;12.73;8.43;;;11.20;99.90;;;;;;5035435;28;20563;-78
2023/04/06 10:17:03;;;;;;;14.10;8.33;;;11.30;99.90;;;;;;5035525;28;20183;-78
2023/04/06 10:19:39;;;;;;;12.43;8.43;;;11.40;99.90;;;;;;5034076;28;20208;-78
2023/04/06 10:22:08;;;;;;;16.57;8.57;;;11.40;99.90;;;;;;5035388;28;20199;-78
2023/04/06 10:24:35;;;;;;;16.60;8.90;;;11.50;99.90;;;;;;5035079;28;20637;-78
2023/04/06 10:27:02;;;;;;;15.77;9.53;;;11.60;99.90;;;;;;5034233;28;20211;-78
2023/04/06 10:29:28;;;;;;;14.07;8.93;;;11.70;99.90;;;;;;5035568;28;20536;-78
2023/04/06 10:31:55;;;;;;;17.73;9.07;;;11.70;99.90;;;;;;5034507;28;20271;-78
2023/04/06 10:34:20;;;;;;;18.20;9.60;;;11.70;99.90;;;;;;5036193;28;20176;-78
2023/04/06 10:36:46;;;;;;;15.20;8.60;;;11.80;99.90;;;;;;5035320;28;20655;-78
2023/04/06 10:39:12;;;;;;;15.53;9.03;;;11.80;99.90;;;;;;5035704;28;20187;-78
2023/04/06 10:41:46;;;;;;;18.03;9.17;;;11.90;99.90;;;;;;5035821;28;20178;-78
2023/04/06 10:44:22;;;;;;;15.00;8.83;;;11.90;99.90;;;;;;5036187;28;20182;-78
2023/04/06 10:47:02;;;;;;;16.07;8.90;;;11.90;99.90;;;;;;5035283;28;20168;-78
2023/04/06 10:49:27;;;;;;;14.27;8.83;;;12.10;99.90;;;;;;5036031;28;20153;-79
2023/04/06 10:51:57;;;;;;;12.80;8.47;;;12.00;99.90;;;;;;5034828;28;20572;-78
2023/04/06 10:54:25;;;;;;;15.10;8.80;;;12.10;99.90;;;;;;5035384;28;20195;-78
2023/04/06 10:56:56;;;;;;;16.67;9.57;;;12.10;99.90;;;;;;5035683;28;20649;-77
2023/04/06 10:59:23;;;;;;;14.93;8.53;;;12.20;99.90;;;;;;5035496;28;20172;-79
2023/04/06 11:01:49;;;;;;;14.70;9.43;;;12.20;99.90;;;;;;5038148;28;20258;-79
2023/04/06 11:04:19;;;;;;;17.13;9.53;;;12.30;99.90;;;;;;5038035;28;20173;-78
2023/04/06 11:06:49;;;;;;;15.97;9.77;;;12.40;99.90;;;;;;5036834;28;20180;-78
2023/04/06 11:09:25;;;;;;;13.40;8.67;;;12.40;99.90;;;;;;5038955;28;20247;-79
2023/04/06 11:11:50;;;;;;;17.90;10.00;;;12.50;99.90;;;;;;5038486;28;20286;-79
2023/04/06 11:14:16;;;;;;;17.17;9.00;;;12.50;99.90;;;;;;5038148;28;20718;-79
2023/04/06 11:16:41;;;;;;;17.10;9.63;;;12.50;99.90;;;;;;5036288;28;20173;-79
2023/04/06 11:19:07;;;;;;;18.20;9.80;;;12.60;99.90;;;;;;5038687;28;20177;-79
2023/04/06 11:21:40;;;;;;;16.73;10.37;;;12.60;99.90;;;;;;5037160;28;20187;-79
2023/04/06 11:24:15;;;;;;;18.40;10.57;;;12.70;99.90;;;;;;5038431;28;20197;-79
2023/04/06 11:26:53;;;;;;;17.73;10.70;;;12.60;99.90;;;;;;5036897;28;20175;-79
2023/04/06 11:29:25;;;;;;;18.00;9.67;;;12.60;99.90;;;;;;5036779;28;20626;-79
2023/04/06 11:31:53;;;;;;;15.50;9.90;;;12.60;99.90;;;;;;5036451;28;20205;-79
2023/04/06 11:34:23;;;;;;;19.43;9.67;;;12.60;99.90;;;;;;5034929;28;20319;-79
2023/04/06 11:36:54;;;;;;;14.83;9.13;;;12.60;99.90;;;;;;5032983;28;20180;-79
2023/04/06 11:39:22;;;;;;;17.67;9.17;;;12.50;99.90;;;;;;5036033;28;20603;-79
2023/04/06 11:41:49;;;;;;;20.03;11.13;;;12.50;99.90;;;;;;5035951;28;20639;-79
2023/04/06 11:44:15;;;;;;;18.23;10.10;;;12.40;99.90;;;;;;5036548;28;20168;-79
2023/04/06 11:46:50;;;;;;;17.70;10.20;;;12.40;99.90;;;;;;5036616;28;20196;-79
2023/04/06 11:49:16;;;;;;;19.87;10.53;;;12.40;99.90;;;;;;5036300;28;20166;-82
2023/04/06 11:51:42;;;;;;;15.37;9.93;;;12.40;99.90;;;;;;5035608;28;20215;-80
2023/04/06 11:54:13;;;;;;;15.37;9.53;;;12.50;99.90;;;;;;5033917;28;20176;-80
2023/04/06 11:56:39;;;;;;;16.73;10.60;;;12.30;99.90;;;;;;5035570;28;20234;-81
2023/04/06 11:59:05;;;;;;;16.13;9.40;;;12.40;99.90;;;;;;5036983;28;20188;-81
2023/04/06 12:01:30;;;;;;;16.90;10.57;;;12.30;99.90;;;;;;5037564;28;20191;-81
2023/04/06 12:03:56;;;;;;;17.77;9.80;;;12.70;99.90;;;;;;5034037;28;20173;-80
2023/04/06 12:06:22;;;;;;;16.83;9.73;;;12.80;99.90;;;;;;5034061;28;20176;-80
2023/04/06 12:08:48;;;;;;;15.67;9.93;;;12.40;99.90;;;;;;5035265;28;20208;-80
2023/04/06 12:11:18;;;;;;;16.00;9.30;;;12.50;99.90;;;;;;5033454;28;20195;-81
2023/04/06 12:13:47;;;;;;;21.27;10.33;;;12.50;99.90;;;;;;5033410;28;20197;-81
2023/04/06 12:16:12;;;;;;;16.70;9.30;;;12.40;99.90;;;;;;5036543;28;20176;-80
2023/04/06 12:18:38;;;;;;;16.33;9.40;;;12.50;99.90;;;;;;5037429;28;20259;-80
2023/04/06 12:21:05;;;;;;;14.63;9.40;;;12.50;99.90;;;;;;5036853;28;20272;-80
2023/04/06 12:23:30;;;;;;;12.80;8.73;;;12.50;99.90;;;;;;5032603;28;20212;-78
2023/04/06 12:25:56;;;;;;;15.53;9.10;;;12.60;99.90;;;;;;5034707;28;20214;-80
2023/04/06 12:28:25;;;;;;;15.50;10.50;;;12.50;99.90;;;;;;5037438;28;20175;-79
2023/04/06 12:30:51;;;;;;;17.53;9.13;;;12.50;99.90;;;;;;5032742;28;20643;-77
2023/04/06 12:33:16;;;;;;;18.33;9.17;;;12.50;99.90;;;;;;5031776;28;20188;-78
2023/04/06 12:35:42;;;;;;;14.13;9.37;;;12.60;99.90;;;;;;5038621;28;20278;-80
2023/04/06 12:38:07;;;;;;;16.80;9.93;;;12.60;99.90;;;;;;5036849;28;20172;-79
2023/04/06 12:40:37;;;;;;;16.27;9.83;;;12.70;99.90;;;;;;5040648;28;20176;-80
2023/04/06 12:43:03;;;;;;;13.47;9.17;;;12.70;99.90;;;;;;5040505;28;20208;-80
2023/04/06 12:45:29;;;;;;;15.23;9.90;;;12.70;99.90;;;;;;5041440;28;20180;-80